Time,TemperatureF,DewpointF,PressureIn,WindDirection,WindDirectionDegrees,WindSpeedMPH,WindSpeedGustMPH,Humidity,HourlyPrecipIn,Conditions,Clouds,dailyrainin,SoftwareType,DateUTC
2013-01-14 00:02:00,41.0,29.0,30.13,East,87,0.0,2.0,63,0.00,,,0.00,,2013-01-14 08:02:00,
2013-01-14 00:11:00,41.0,29.0,30.13,East,87,0.0,2.0,63,0.00,,,0.00,,2013-01-14 08:11:00,
2013-01-14 00:22:00,40.0,29.0,30.14,East,87,0.0,1.0,65,0.00,,,0.00,,2013-01-14 08:22:00,
2013-01-14 00:32:00,40.0,28.0,30.14,East,88,0.0,1.0,61,0.00,,,0.00,,2013-01-14 08:32:00,
2013-01-14 00:42:00,40.0,28.0,30.14,East,88,0.0,1.0,61,0.00,,,0.00,,2013-01-14 08:42:00,
2013-01-14 00:52:00,41.0,21.0,30.15,ENE,69,4.0,9.0,45,0.00,,,0.00,,2013-01-14 08:52:00,
2013-01-14 01:02:00,44.0,16.0,30.15,NE,54,3.0,9.0,32,0.00,,,0.00,,2013-01-14 09:02:00,
2013-01-14 01:11:00,44.0,16.0,30.15,NE,54,3.0,9.0,32,0.00,,,0.00,,2013-01-14 09:11:00,
2013-01-14 01:22:00,44.0,15.0,30.16,NE,53,3.0,7.0,31,0.00,,,0.00,,2013-01-14 09:22:00,
2013-01-14 01:33:00,44.0,13.0,30.16,ENE,63,3.0,9.0,28,0.00,,,0.00,,2013-01-14 09:33:00,
2013-01-14 01:42:00,44.0,13.0,30.16,ENE,63,3.0,9.0,28,0.00,,,0.00,,2013-01-14 09:42:00,
2013-01-14 01:52:00,44.0,12.0,30.17,ENE,72,4.0,10.0,27,0.00,,,0.00,,2013-01-14 09:52:00,
2013-01-14 02:02:00,44.0,12.0,30.17,ENE,61,3.0,12.0,27,0.00,,,0.00,,2013-01-14 10:02:00,
2013-01-14 02:11:00,44.0,12.0,30.17,ENE,61,3.0,12.0,27,0.00,,,0.00,,2013-01-14 10:11:00,
2013-01-14 02:22:00,44.0,12.0,30.18,ENE,60,3.0,8.0,27,0.00,,,0.00,,2013-01-14 10:22:00,
2013-01-14 02:32:00,43.0,12.0,30.18,East,89,1.0,5.0,28,0.00,,,0.00,,2013-01-14 10:32:00,
2013-01-14 02:42:00,43.0,12.0,30.18,East,89,1.0,5.0,28,0.00,,,0.00,,2013-01-14 10:42:00,
2013-01-14 02:52:00,42.0,12.0,30.19,East,88,1.0,2.0,29,0.00,,,0.00,,2013-01-14 10:52:00,
2013-01-14 03:02:00,41.0,12.0,30.19,East,87,1.0,3.0,30,0.00,,,0.00,,2013-01-14 11:02:00,
2013-01-14 03:11:00,41.0,12.0,30.19,East,87,1.0,3.0,30,0.00,,,0.00,,2013-01-14 11:11:00,
2013-01-14 03:22:00,41.0,13.0,30.19,East,90,1.0,5.0,31,0.00,,,0.00,,2013-01-14 11:22:00,
2013-01-14 03:32:00,41.0,11.0,30.19,ENE,62,2.0,6.0,29,0.00,,,0.00,,2013-01-14 11:32:00,
2013-01-14 03:42:00,41.0,11.0,30.19,ENE,62,2.0,6.0,29,0.00,,,0.00,,2013-01-14 11:42:00,
2013-01-14 03:53:00,41.0,11.0,30.19,ENE,74,2.0,7.0,29,0.00,,,0.00,,2013-01-14 11:53:00,
2013-01-14 04:02:00,41.0,10.0,30.19,East,79,1.0,5.0,28,0.00,,,0.00,,2013-01-14 12:02:00,
2013-01-14 04:12:00,41.0,10.0,30.19,East,79,1.0,5.0,28,0.00,,,0.00,,2013-01-14 12:12:00,
2013-01-14 04:22:00,41.0,10.0,30.19,East,96,1.0,3.0,28,0.00,,,0.00,,2013-01-14 12:22:00,
2013-01-14 04:33:00,40.0,10.0,30.19,East,90,1.0,3.0,29,0.00,,,0.00,,2013-01-14 12:33:00,
2013-01-14 04:42:00,40.0,10.0,30.19,East,90,1.0,3.0,29,0.00,,,0.00,,2013-01-14 12:42:00,
2013-01-14 04:52:00,40.0,10.0,30.19,East,90,2.0,5.0,29,0.00,,,0.00,,2013-01-14 12:52:00,
2013-01-14 05:03:00,40.0,10.0,30.20,East,101,3.0,12.0,28,0.00,,,0.00,,2013-01-14 13:03:00,
2013-01-14 05:12:00,40.0,10.0,30.20,East,101,3.0,12.0,28,0.00,,,0.00,,2013-01-14 13:12:00,
2013-01-14 05:22:00,41.0,10.0,30.20,East,99,5.0,10.0,27,0.00,,,0.00,,2013-01-14 13:22:00,
2013-01-14 05:33:00,40.0,10.0,30.21,ENE,78,3.0,7.0,28,0.00,,,0.00,,2013-01-14 13:33:00,
2013-01-14 05:42:00,40.0,10.0,30.21,ENE,78,3.0,7.0,28,0.00,,,0.00,,2013-01-14 13:42:00,
2013-01-14 05:52:00,40.0,10.0,30.21,East,99,2.0,7.0,28,0.00,,,0.00,,2013-01-14 13:52:00,
2013-01-14 06:02:00,39.0,9.0,30.21,East,80,1.0,3.0,28,0.00,,,0.00,,2013-01-14 14:02:00,
2013-01-14 06:12:00,39.0,9.0,30.21,East,80,1.0,3.0,28,0.00,,,0.00,,2013-01-14 14:12:00,
2013-01-14 06:22:00,39.0,9.0,30.21,East,80,0.0,2.0,28,0.00,,,0.00,,2013-01-14 14:22:00,
2013-01-14 06:32:00,38.0,10.0,30.22,East,80,0.0,1.0,31,0.00,,,0.00,,2013-01-14 14:32:00,
2013-01-14 06:42:00,38.0,10.0,30.22,East,80,0.0,1.0,31,0.00,,,0.00,,2013-01-14 14:42:00,
2013-01-14 06:52:00,37.0,10.0,30.22,East,79,0.0,2.0,32,0.00,,,0.00,,2013-01-14 14:52:00,
2013-01-14 07:02:00,37.0,13.0,30.24,NW,315,2.0,3.0,37,0.00,,,0.00,,2013-01-14 15:02:00,
2013-01-14 07:12:00,37.0,13.0,30.24,NW,315,2.0,3.0,37,0.00,,,0.00,,2013-01-14 15:12:00,
2013-01-14 07:22:00,37.0,15.0,30.24,NW,308,3.0,3.0,40,0.00,,,0.00,,2013-01-14 15:22:00,
2013-01-14 07:33:00,36.0,16.0,30.26,North,350,1.0,2.0,43,0.00,,,0.00,,2013-01-14 15:33:00,
2013-01-14 07:42:00,36.0,16.0,30.26,North,350,1.0,2.0,43,0.00,,,0.00,,2013-01-14 15:42:00,
2013-01-14 07:52:00,36.0,16.0,30.26,North,355,0.0,2.0,43,0.00,,,0.00,,2013-01-14 15:52:00,
2013-01-14 08:02:00,37.0,16.0,30.28,NNW,332,3.0,7.0,42,0.00,,,0.00,,2013-01-14 16:02:00,
2013-01-14 08:12:00,37.0,16.0,30.28,NNW,332,3.0,7.0,42,0.00,,,0.00,,2013-01-14 16:12:00,
2013-01-14 08:22:00,38.0,16.0,30.29,NW,325,1.0,5.0,41,0.00,,,0.00,,2013-01-14 16:22:00,
2013-01-14 08:33:00,39.0,16.0,30.30,WNW,292,0.0,3.0,39,0.00,,,0.00,,2013-01-14 16:33:00,
2013-01-14 08:42:00,39.0,16.0,30.30,WNW,292,0.0,3.0,39,0.00,,,0.00,,2013-01-14 16:42:00,
2013-01-14 08:52:00,40.0,16.0,30.29,WNW,288,2.0,3.0,37,0.00,,,0.00,,2013-01-14 16:52:00,
2013-01-14 09:02:00,42.0,15.0,30.30,NNW,338,1.0,2.0,33,0.00,,,0.00,,2013-01-14 17:02:00,
2013-01-14 09:11:00,42.0,15.0,30.30,NNW,338,1.0,2.0,33,0.00,,,0.00,,2013-01-14 17:11:00,
2013-01-14 09:22:00,44.0,14.0,30.30,NNE,22,0.0,3.0,29,0.00,,,0.00,,2013-01-14 17:22:00,
2013-01-14 09:33:00,45.0,6.0,30.30,WNW,302,1.0,3.0,20,0.00,,,0.00,,2013-01-14 17:33:00,
2013-01-14 09:42:00,45.0,6.0,30.30,WNW,302,1.0,3.0,20,0.00,,,0.00,,2013-01-14 17:42:00,
2013-01-14 09:53:00,46.0,6.0,30.30,NE,39,0.0,3.0,19,0.00,,,0.00,,2013-01-14 17:53:00,
2013-01-14 10:02:00,48.0,5.0,30.30,SSE,152,2.0,3.0,17,0.00,,,0.00,,2013-01-14 18:02:00,
2013-01-14 10:12:00,48.0,5.0,30.30,West,261,1.0,3.0,17,0.00,,,0.00,,2013-01-14 18:12:00,
2013-01-14 10:22:00,48.0,5.0,30.30,West,261,1.0,3.0,17,0.00,,,0.00,,2013-01-14 18:22:00,
2013-01-14 10:33:00,48.0,4.0,30.31,NNW,345,1.0,3.0,16,0.00,,,0.00,,2013-01-14 18:33:00,
2013-01-14 10:42:00,48.0,4.0,30.31,NNW,345,1.0,3.0,16,0.00,,,0.00,,2013-01-14 18:42:00,
2013-01-14 10:52:00,49.0,6.0,30.31,North,0,2.0,3.0,17,0.00,,,0.00,,2013-01-14 18:52:00,
2013-01-14 11:02:00,49.0,5.0,30.30,West,279,1.0,5.0,16,0.00,,,0.00,,2013-01-14 19:02:00,
2013-01-14 11:12:00,49.0,5.0,30.30,West,279,1.0,5.0,16,0.00,,,0.00,,2013-01-14 19:12:00,
2013-01-14 11:22:00,50.0,3.0,30.29,WNW,290,3.0,5.0,14,0.00,,,0.00,,2013-01-14 19:22:00,
2013-01-14 11:32:00,50.0,3.0,30.28,North,355,3.0,5.0,14,0.00,,,0.00,,2013-01-14 19:32:00,
2013-01-14 11:42:00,50.0,3.0,30.28,North,355,3.0,5.0,14,0.00,,,0.00,,2013-01-14 19:42:00,
2013-01-14 11:52:00,51.0,6.0,30.28,NNW,346,1.0,5.0,16,0.00,,,0.00,,2013-01-14 19:52:00,
2013-01-14 12:03:00,51.0,4.0,30.28,West,262,1.0,6.0,14,0.00,,,0.00,,2013-01-14 20:03:00,
2013-01-14 12:12:00,51.0,4.0,30.28,West,262,1.0,6.0,14,0.00,,,0.00,,2013-01-14 20:12:00,
2013-01-14 12:22:00,52.0,3.0,30.27,West,277,5.0,7.0,13,0.00,,,0.00,,2013-01-14 20:22:00,
2013-01-14 12:33:00,53.0,2.0,30.26,WNW,296,3.0,6.0,12,0.00,,,0.00,,2013-01-14 20:33:00,
2013-01-14 12:42:00,53.0,2.0,30.26,WNW,296,3.0,6.0,12,0.00,,,0.00,,2013-01-14 20:42:00,
2013-01-14 12:52:00,52.0,1.0,30.26,WNW,300,3.0,6.0,12,0.00,,,0.00,,2013-01-14 20:52:00,
2013-01-14 13:02:00,53.0,4.0,30.25,WSW,252,1.0,6.0,13,0.00,,,0.00,,2013-01-14 21:02:00,
2013-01-14 13:12:00,53.0,4.0,30.25,WSW,252,1.0,6.0,13,0.00,,,0.00,,2013-01-14 21:12:00,
2013-01-14 13:22:00,54.0,3.0,30.25,SSW,204,2.0,6.0,12,0.00,,,0.00,,2013-01-14 21:22:00,
2013-01-14 13:32:00,54.0,3.0,30.25,South,179,3.0,7.0,12,0.00,,,0.00,,2013-01-14 21:32:00,
2013-01-14 13:42:00,54.0,3.0,30.25,South,179,3.0,7.0,12,0.00,,,0.00,,2013-01-14 21:42:00,
2013-01-14 13:53:00,55.0,3.0,30.24,SW,228,2.0,6.0,12,0.00,,,0.00,,2013-01-14 21:53:00,
2013-01-14 14:02:00,55.0,1.0,30.24,South,169,5.0,7.0,11,0.00,,,0.00,,2013-01-14 22:02:00,
2013-01-14 14:12:00,55.0,1.0,30.24,South,169,5.0,7.0,11,0.00,,,0.00,,2013-01-14 22:12:00,
2013-01-14 14:22:00,55.0,1.0,30.24,SSW,194,2.0,7.0,11,0.00,,,0.00,,2013-01-14 22:22:00,
2013-01-14 14:32:00,55.0,1.0,30.24,South,183,5.0,8.0,11,0.00,,,0.00,,2013-01-14 22:32:00,
2013-01-14 14:42:00,55.0,1.0,30.24,South,183,5.0,8.0,11,0.00,,,0.00,,2013-01-14 22:42:00,
2013-01-14 14:52:00,55.0,1.0,30.24,West,276,2.0,7.0,11,0.00,,,0.00,,2013-01-14 22:52:00,
2013-01-14 15:02:00,56.0,2.0,30.25,SE,141,4.0,7.0,11,0.00,,,0.00,,2013-01-14 23:02:00,
2013-01-14 15:12:00,56.0,2.0,30.25,SE,141,4.0,7.0,11,0.00,,,0.00,,2013-01-14 23:12:00,
2013-01-14 15:22:00,55.0,3.0,30.25,SE,139,4.0,8.0,12,0.00,,,0.00,,2013-01-14 23:22:00,
2013-01-14 15:32:00,55.0,11.0,30.25,SSW,194,6.0,9.0,17,0.00,,,0.00,,2013-01-14 23:32:00,
2013-01-14 15:42:00,55.0,11.0,30.25,SSW,194,6.0,9.0,17,0.00,,,0.00,,2013-01-14 23:42:00,
2013-01-14 15:52:00,55.0,11.0,30.25,WSW,249,3.0,8.0,17,0.00,,,0.00,,2013-01-14 23:52:00,
2013-01-14 16:02:00,55.0,10.0,30.25,SSW,204,5.0,7.0,16,0.00,,,0.00,,2013-01-15 00:02:00,
2013-01-14 16:11:00,55.0,10.0,30.25,SSW,204,5.0,7.0,16,0.00,,,0.00,,2013-01-15 00:11:00,
2013-01-14 16:22:00,55.0,10.0,30.25,SSE,168,3.0,7.0,16,0.00,,,0.00,,2013-01-15 00:22:00,
2013-01-14 16:32:00,55.0,14.0,30.26,SSW,206,5.0,10.0,19,0.00,,,0.00,,2013-01-15 00:32:00,
2013-01-14 16:42:00,55.0,14.0,30.26,SSW,206,5.0,10.0,19,0.00,,,0.00,,2013-01-15 00:42:00,
2013-01-14 16:52:00,54.0,11.0,30.25,SSW,204,7.0,10.0,18,0.00,,,0.00,,2013-01-15 00:52:00,
2013-01-14 17:02:00,53.0,13.0,30.26,SW,219,6.0,8.0,20,0.00,,,0.00,,2013-01-15 01:02:00,
2013-01-14 17:12:00,53.0,15.0,30.26,SSW,207,5.0,9.0,22,0.00,,,0.00,,2013-01-15 01:12:00,
2013-01-14 17:22:00,53.0,15.0,30.26,SSW,207,5.0,9.0,22,0.00,,,0.00,,2013-01-15 01:22:00,
2013-01-14 17:32:00,52.0,16.0,30.27,South,188,6.0,8.0,24,0.00,,,0.00,,2013-01-15 01:32:00,
2013-01-14 17:42:00,52.0,16.0,30.27,South,188,6.0,8.0,24,0.00,,,0.00,,2013-01-15 01:42:00,
2013-01-14 17:52:00,51.0,16.0,30.27,South,188,2.0,7.0,25,0.00,,,0.00,,2013-01-15 01:52:00,
2013-01-14 18:02:00,50.0,16.0,30.28,South,188,0.0,2.0,26,0.00,,,0.00,,2013-01-15 02:02:00,
2013-01-14 18:11:00,50.0,16.0,30.28,South,188,0.0,2.0,26,0.00,,,0.00,,2013-01-15 02:11:00,
2013-01-14 18:22:00,50.0,17.0,30.29,South,188,1.0,2.0,27,0.00,,,0.00,,2013-01-15 02:22:00,
2013-01-14 18:32:00,49.0,20.0,30.29,South,182,1.0,3.0,32,0.00,,,0.00,,2013-01-15 02:32:00,
2013-01-14 18:42:00,49.0,20.0,30.29,South,182,1.0,3.0,32,0.00,,,0.00,,2013-01-15 02:42:00,
2013-01-14 18:52:00,49.0,21.0,30.28,South,182,1.0,2.0,33,0.00,,,0.00,,2013-01-15 02:52:00,
2013-01-14 19:02:00,47.0,22.0,30.29,SSE,165,1.0,2.0,37,0.00,,,0.00,,2013-01-15 03:02:00,
2013-01-14 19:11:00,47.0,22.0,30.29,SSE,165,1.0,2.0,37,0.00,,,0.00,,2013-01-15 03:11:00,
2013-01-14 19:22:00,47.0,23.0,30.30,SSE,165,1.0,2.0,38,0.00,,,0.00,,2013-01-15 03:22:00,
2013-01-14 19:32:00,46.0,24.0,30.31,SSE,148,1.0,2.0,41,0.00,,,0.00,,2013-01-15 03:32:00,
2013-01-14 19:42:00,46.0,24.0,30.31,SSE,148,1.0,2.0,41,0.00,,,0.00,,2013-01-15 03:42:00,
2013-01-14 19:52:00,46.0,24.0,30.31,ESE,107,1.0,3.0,42,0.00,,,0.00,,2013-01-15 03:52:00,
2013-01-14 20:02:00,46.0,25.0,30.30,ESE,102,0.0,2.0,44,0.00,,,0.00,,2013-01-15 04:02:00,
2013-01-14 20:11:00,46.0,25.0,30.30,ESE,102,0.0,2.0,44,0.00,,,0.00,,2013-01-15 04:11:00,
2013-01-14 20:22:00,45.0,25.0,30.30,ESE,102,0.0,1.0,45,0.00,,,0.00,,2013-01-15 04:22:00,
2013-01-14 20:32:00,44.0,25.0,30.30,ESE,102,0.0,1.0,47,0.00,,,0.00,,2013-01-15 04:32:00,
2013-01-14 20:42:00,44.0,25.0,30.30,ESE,102,0.0,1.0,47,0.00,,,0.00,,2013-01-15 04:42:00,
2013-01-14 20:52:00,44.0,25.0,30.29,East,88,0.0,3.0,46,0.00,,,0.00,,2013-01-15 04:52:00,
2013-01-14 21:03:00,43.0,24.0,30.30,NE,48,1.0,3.0,46,0.00,,,0.00,,2013-01-15 05:03:00,
2013-01-14 21:12:00,43.0,24.0,30.31,NE,34,0.0,2.0,46,0.00,,,0.00,,2013-01-15 05:12:00,
2013-01-14 21:22:00,43.0,24.0,30.31,NE,34,0.0,2.0,46,0.00,,,0.00,,2013-01-15 05:22:00,
2013-01-14 21:33:00,44.0,23.0,30.31,North,355,0.0,2.0,44,0.00,,,0.00,,2013-01-15 05:33:00,
2013-01-14 21:42:00,44.0,23.0,30.31,North,355,0.0,2.0,44,0.00,,,0.00,,2013-01-15 05:42:00,
2013-01-14 21:52:00,44.0,26.0,30.31,North,349,0.0,3.0,48,0.00,,,0.00,,2013-01-15 05:52:00,
2013-01-14 22:02:00,43.0,23.0,30.32,North,0,1.0,3.0,45,0.00,,,0.00,,2013-01-15 06:02:00,
2013-01-14 22:12:00,43.0,23.0,30.32,North,0,1.0,3.0,45,0.00,,,0.00,,2013-01-15 06:12:00,
2013-01-14 22:22:00,42.0,22.0,30.32,North,5,2.0,3.0,44,0.00,,,0.00,,2013-01-15 06:22:00,
2013-01-14 22:32:00,42.0,23.0,30.32,South,169,0.0,1.0,46,0.00,,,0.00,,2013-01-15 06:32:00,
2013-01-14 22:42:00,42.0,23.0,30.32,South,169,0.0,1.0,46,0.00,,,0.00,,2013-01-15 06:42:00,
2013-01-14 22:52:00,42.0,23.0,30.31,South,170,0.0,0.0,47,0.00,,,0.00,,2013-01-15 06:52:00,
2013-01-14 23:02:00,41.0,23.0,30.31,South,170,0.0,2.0,48,0.00,,,0.00,,2013-01-15 07:02:00,
2013-01-14 23:12:00,41.0,23.0,30.31,South,170,0.0,2.0,48,0.00,,,0.00,,2013-01-15 07:12:00,
2013-01-14 23:22:00,41.0,23.0,30.32,South,171,0.0,2.0,49,0.00,,,0.00,,2013-01-15 07:22:00,
2013-01-14 23:32:00,40.0,23.0,30.32,South,171,0.0,1.0,50,0.00,,,0.00,,2013-01-15 07:32:00,
2013-01-14 23:42:00,40.0,23.0,30.32,South,171,0.0,1.0,50,0.00,,,0.00,,2013-01-15 07:42:00,
2013-01-14 23:52:00,40.0,23.0,30.32,South,171,0.0,1.0,51,0.00,,,0.00,,2013-01-15 07:52:00,